createdAt,value
2018-12-21T00:00:36.149Z,100593.00
2018-12-21T00:03:04.405Z,100577.00
2018-12-21T00:05:32.566Z,100590.00
2018-12-21T00:08:00.993Z,100578.00
2018-12-21T00:10:29.195Z,100586.00
2018-12-21T00:12:57.364Z,100580.00
2018-12-21T00:15:25.673Z,100579.00
2018-12-21T00:17:53.836Z,100589.00
2018-12-21T00:20:22.011Z,100586.00
2018-12-21T00:22:50.221Z,100595.00
2018-12-21T00:25:18.467Z,100594.00
2018-12-21T00:27:46.733Z,100591.00
2018-12-21T00:30:16.908Z,100591.00
2018-12-21T00:32:50.588Z,100581.00
2018-12-21T00:35:24.521Z,100594.00
2018-12-21T00:37:58.315Z,100592.00
2018-12-21T00:40:32.172Z,100593.00
2018-12-21T00:43:18.108Z,100593.00
2018-12-21T00:45:48.325Z,100586.00
2018-12-21T00:48:16.496Z,100589.00
2018-12-21T00:50:44.674Z,100592.00
2018-12-21T00:53:12.915Z,100596.00
2018-12-21T00:55:41.098Z,100597.00
2018-12-21T00:58:09.265Z,100594.00
2018-12-21T01:00:37.500Z,100596.00
2018-12-21T01:03:06.808Z,100592.00
2018-12-21T01:05:35.225Z,100594.00
2018-12-21T01:08:03.568Z,100592.00
2018-12-21T01:10:31.740Z,100604.00
2018-12-21T01:12:59.912Z,100606.00
2018-12-21T01:15:28.108Z,100608.00
2018-12-21T01:17:56.392Z,100605.00
2018-12-21T01:20:25.262Z,100609.00
2018-12-21T01:22:53.413Z,100604.00
2018-12-21T01:25:21.612Z,100603.00
2018-12-21T01:27:49.824Z,100602.00
2018-12-21T01:30:18.040Z,100607.00
2018-12-21T01:32:46.213Z,100596.00
2018-12-21T01:35:14.439Z,100595.00
2018-12-21T01:37:43.205Z,100597.00
2018-12-21T01:40:11.417Z,100583.00
2018-12-21T01:42:39.634Z,100592.00
2018-12-21T01:45:07.879Z,100580.00
2018-12-21T01:47:36.088Z,100589.00
2018-12-21T01:50:05.644Z,100587.00
2018-12-21T01:52:33.825Z,100587.00
2018-12-21T01:55:02.082Z,100579.00
2018-12-21T01:57:30.348Z,100576.00
2018-12-21T01:59:58.526Z,100577.00
2018-12-21T02:02:26.726Z,100579.00
2018-12-21T02:04:54.895Z,100581.00
2018-12-21T02:07:23.070Z,100581.00
2018-12-21T02:09:51.270Z,100576.00
2018-12-21T02:12:19.435Z,100575.00
2018-12-21T02:14:47.644Z,100578.00
2018-12-21T02:17:15.810Z,100571.00
2018-12-21T02:19:43.990Z,100575.00
2018-12-21T02:22:12.213Z,100576.00
2018-12-21T02:24:40.423Z,100576.00
2018-12-21T02:27:08.663Z,100567.00
2018-12-21T02:29:36.872Z,100569.00
2018-12-21T02:32:05.079Z,100575.00
2018-12-21T02:34:33.253Z,100575.00
2018-12-21T02:37:01.514Z,100580.00
2018-12-21T02:39:29.695Z,100579.00
2018-12-21T02:41:57.913Z,100575.00
2018-12-21T02:44:26.152Z,100569.00
2018-12-21T02:46:54.318Z,100580.00
2018-12-21T02:49:22.490Z,100579.00
2018-12-21T02:51:50.736Z,100574.00
2018-12-21T02:54:18.955Z,100580.00
2018-12-21T02:56:47.117Z,100571.00
2018-12-21T02:59:15.329Z,100576.00
2018-12-21T03:01:43.542Z,100577.00
2018-12-21T03:04:11.710Z,100573.00
2018-12-21T03:06:39.912Z,100573.00
2018-12-21T03:09:09.668Z,100569.00
2018-12-21T03:11:37.898Z,100561.00
2018-12-21T03:14:06.398Z,100574.00
2018-12-21T03:16:34.662Z,100568.00
2018-12-21T03:19:02.838Z,100563.00
2018-12-21T03:21:31.082Z,100558.00
2018-12-21T03:23:59.258Z,100562.00
2018-12-21T03:26:27.430Z,100557.00
2018-12-21T03:28:55.634Z,100563.00
2018-12-21T03:31:23.799Z,100549.00
2018-12-21T03:33:52.015Z,100563.00
2018-12-21T03:36:20.231Z,100547.00
2018-12-21T03:38:48.403Z,100548.00
2018-12-21T03:41:16.564Z,100552.00
2018-12-21T03:43:44.782Z,100539.00
2018-12-21T03:46:12.999Z,100534.00
2018-12-21T03:48:41.161Z,100533.00
2018-12-21T03:51:09.430Z,100534.00
2018-12-21T03:53:37.703Z,100542.00
2018-12-21T03:56:05.884Z,100547.00
2018-12-21T03:58:34.135Z,100539.00
2018-12-21T04:01:02.304Z,100537.00
2018-12-21T04:03:30.503Z,100533.00
2018-12-21T04:05:58.717Z,100528.00
2018-12-21T04:08:26.885Z,100524.00
2018-12-21T04:10:55.052Z,100527.00
2018-12-21T04:13:23.234Z,100525.00
2018-12-21T04:15:51.390Z,100528.00
2018-12-21T04:18:19.603Z,100530.00
2018-12-21T04:20:47.809Z,100533.00
2018-12-21T04:23:15.995Z,100527.00
2018-12-21T04:25:44.177Z,100522.00
2018-12-21T04:28:12.378Z,100518.00
2018-12-21T04:30:40.541Z,100518.00
2018-12-21T04:33:08.798Z,100519.00
2018-12-21T04:35:37.050Z,100521.00
2018-12-21T04:38:05.352Z,100518.00
2018-12-21T04:40:33.530Z,100516.00
2018-12-21T04:43:01.804Z,100508.00
2018-12-21T04:45:30.037Z,100512.00
2018-12-21T04:47:58.218Z,100511.00
2018-12-21T04:50:26.403Z,100516.00
2018-12-21T04:52:54.608Z,100519.00
2018-12-21T04:55:22.785Z,100515.00
2018-12-21T04:57:50.991Z,100509.00
2018-12-21T05:00:19.191Z,100511.00
2018-12-21T05:02:47.347Z,100510.00
2018-12-21T05:05:15.561Z,100510.00
2018-12-21T05:07:43.730Z,100510.00
2018-12-21T05:10:11.984Z,100498.00
2018-12-21T05:12:40.193Z,100500.00
2018-12-21T05:15:08.482Z,100502.00
2018-12-21T05:17:36.642Z,100499.00
2018-12-21T05:20:05.654Z,100506.00
2018-12-21T05:22:33.835Z,100497.00
2018-12-21T05:25:02.053Z,100498.00
2018-12-21T05:27:30.257Z,100505.00
2018-12-21T05:29:58.473Z,100489.00
2018-12-21T05:32:26.688Z,100496.00
2018-12-21T05:34:54.896Z,100496.00
2018-12-21T05:37:23.068Z,100496.00
2018-12-21T05:39:51.236Z,100491.00
2018-12-21T05:42:19.538Z,100490.00
2018-12-21T05:44:47.702Z,100497.00
2018-12-21T05:47:15.884Z,100493.00
2018-12-21T05:49:44.163Z,100488.00
2018-12-21T05:52:12.347Z,100488.00
2018-12-21T05:54:40.519Z,100497.00
2018-12-21T05:57:08.769Z,100488.00
2018-12-21T05:59:36.951Z,100491.00
2018-12-21T06:02:05.493Z,100480.00
2018-12-21T06:04:33.960Z,100484.00
2018-12-21T06:07:02.165Z,100486.00
2018-12-21T06:09:30.341Z,100481.00
2018-12-21T06:11:58.560Z,100475.00
2018-12-21T06:14:26.715Z,100473.00
2018-12-21T06:16:54.922Z,100475.00
2018-12-21T06:19:23.369Z,100470.00
2018-12-21T06:21:51.536Z,100470.00
2018-12-21T06:24:19.722Z,100471.00
2018-12-21T06:26:47.967Z,100471.00
2018-12-21T06:29:16.182Z,100461.00
2018-12-21T06:31:44.343Z,100463.00
2018-12-21T06:34:12.527Z,100469.00
2018-12-21T06:36:40.692Z,100463.00
2018-12-21T06:39:08.870Z,100455.00
2018-12-21T06:41:37.071Z,100465.00
2018-12-21T06:44:05.249Z,100460.00
2018-12-21T06:46:33.429Z,100463.00
2018-12-21T06:49:01.638Z,100460.00
2018-12-21T06:51:29.847Z,100465.00
2018-12-21T06:53:58.052Z,100461.00
2018-12-21T06:56:26.239Z,100453.00
2018-12-21T06:58:54.427Z,100451.00
2018-12-21T07:01:22.591Z,100445.00
2018-12-21T07:03:50.789Z,100451.00
2018-12-21T07:06:18.989Z,100459.00
2018-12-21T07:08:47.147Z,100448.00
2018-12-21T07:11:15.340Z,100450.00
2018-12-21T07:13:43.545Z,100434.00
2018-12-21T07:16:11.717Z,100440.00
2018-12-21T07:18:39.961Z,100442.00
2018-12-21T07:21:08.124Z,100433.00
2018-12-21T07:23:36.297Z,100431.00
2018-12-21T07:26:04.562Z,100433.00
2018-12-21T07:28:32.788Z,100436.00
2018-12-21T07:31:00.958Z,100427.00
2018-12-21T07:33:29.210Z,100425.00
2018-12-21T07:35:57.366Z,100423.00
2018-12-21T07:38:25.563Z,100430.00
2018-12-21T07:40:53.779Z,100417.00
2018-12-21T07:43:21.956Z,100404.00
2018-12-21T07:45:50.124Z,100407.00
2018-12-21T07:48:18.333Z,100408.00
2018-12-21T07:50:46.622Z,100405.00
2018-12-21T07:53:14.889Z,100412.00
2018-12-21T07:55:43.276Z,100413.00
2018-12-21T07:58:11.455Z,100407.00
2018-12-21T08:00:39.670Z,100408.00
2018-12-21T08:03:07.879Z,100410.00
2018-12-21T08:05:36.049Z,100406.00
2018-12-21T08:08:04.221Z,100404.00
2018-12-21T08:10:32.402Z,100407.00
2018-12-21T08:13:00.600Z,100409.00
2018-12-21T08:15:28.764Z,100402.00
2018-12-21T08:17:56.965Z,100414.00
2018-12-21T08:20:25.183Z,100408.00
2018-12-21T08:22:53.362Z,100395.00
2018-12-21T08:25:21.607Z,100401.00
2018-12-21T08:27:49.945Z,100392.00
2018-12-21T08:30:18.183Z,100392.00
2018-12-21T08:32:46.374Z,100392.00
2018-12-21T08:35:14.540Z,100387.00
2018-12-21T08:37:42.741Z,100379.00
2018-12-21T08:40:10.952Z,100377.00
2018-12-21T08:42:39.288Z,100393.00
2018-12-21T08:45:08.336Z,100383.00
2018-12-21T08:47:36.509Z,100383.00
2018-12-21T08:50:06.922Z,100383.00
2018-12-21T08:52:35.093Z,100390.00
2018-12-21T08:55:03.341Z,100387.00
2018-12-21T08:57:31.592Z,100386.00
2018-12-21T08:59:59.800Z,100374.00
2018-12-21T09:02:28.005Z,100382.00
2018-12-21T09:04:56.200Z,100380.00
2018-12-21T09:07:24.409Z,100375.00
2018-12-21T09:09:52.621Z,100367.00
2018-12-21T09:12:20.825Z,100374.00
2018-12-21T09:14:49.000Z,100375.00
2018-12-21T09:17:17.276Z,100366.00
2018-12-21T09:19:45.497Z,100360.00
2018-12-21T09:22:13.673Z,100359.00
2018-12-21T09:24:41.831Z,100363.00
2018-12-21T09:27:10.034Z,100354.00
2018-12-21T09:29:38.215Z,100351.00
2018-12-21T09:32:06.568Z,100348.00
2018-12-21T09:34:34.817Z,100341.00
2018-12-21T09:37:02.994Z,100332.00
2018-12-21T09:39:31.224Z,100326.00
2018-12-21T09:41:59.603Z,100322.00
2018-12-21T09:44:27.793Z,100323.00
2018-12-21T09:46:56.094Z,100315.00
2018-12-21T09:49:24.311Z,100316.00
2018-12-21T09:51:52.517Z,100300.00
2018-12-21T09:54:20.689Z,100301.00
2018-12-21T09:56:48.891Z,100290.00
2018-12-21T09:59:17.095Z,100289.00
2018-12-21T10:01:45.278Z,100288.00
2018-12-21T10:04:13.476Z,100288.00
2018-12-21T10:06:41.688Z,100282.00
2018-12-21T10:09:09.934Z,100279.00
2018-12-21T10:11:38.147Z,100269.00
2018-12-21T10:14:06.428Z,100260.00
2018-12-21T10:16:34.637Z,100269.00
2018-12-21T10:19:02.840Z,100263.00
2018-12-21T10:21:31.013Z,100260.00
2018-12-21T10:23:59.200Z,100262.00
2018-12-21T10:26:27.453Z,100259.00
2018-12-21T10:28:55.757Z,100251.00
2018-12-21T10:31:23.932Z,100251.00
2018-12-21T10:33:52.130Z,100244.00
2018-12-21T10:36:20.342Z,100235.00
2018-12-21T10:38:48.511Z,100229.00
2018-12-21T10:41:16.722Z,100232.00
2018-12-21T10:43:44.918Z,100230.00
2018-12-21T10:46:13.115Z,100217.00
2018-12-21T10:48:41.325Z,100214.00
2018-12-21T10:51:09.479Z,100209.00
2018-12-21T10:53:39.385Z,100206.00
2018-12-21T10:56:07.952Z,100205.00
2018-12-21T10:58:36.134Z,100200.00
2018-12-21T11:01:04.382Z,100185.00
2018-12-21T11:03:32.605Z,100183.00
2018-12-21T11:06:00.814Z,100168.00
2018-12-21T11:08:28.985Z,100168.00
2018-12-21T11:10:57.303Z,100156.00
2018-12-21T11:13:26.388Z,100156.00
2018-12-21T11:15:54.570Z,100153.00
2018-12-21T11:18:22.768Z,100141.00
2018-12-21T11:20:50.930Z,100137.00
2018-12-21T11:23:19.144Z,100141.00
2018-12-21T11:25:47.450Z,100131.00
2018-12-21T11:28:34.375Z,100120.00
2018-12-21T11:31:02.966Z,100122.00
2018-12-21T11:33:31.175Z,100117.00
2018-12-21T11:35:59.736Z,100103.00
2018-12-21T11:38:28.176Z,100095.00
2018-12-21T11:40:56.393Z,100103.00
2018-12-21T11:43:24.617Z,100104.00
2018-12-21T11:45:53.104Z,100098.00
2018-12-21T11:48:21.310Z,100098.00
2018-12-21T11:50:49.485Z,100091.00
2018-12-21T11:53:17.687Z,100093.00
2018-12-21T11:55:45.852Z,100083.00
2018-12-21T11:58:14.085Z,100082.00
2018-12-21T12:00:42.270Z,100073.00
2018-12-21T12:03:10.445Z,100066.00
2018-12-21T12:05:38.617Z,100065.00
2018-12-21T12:08:06.829Z,100053.00
2018-12-21T12:10:35.000Z,100055.00
2018-12-21T12:13:03.255Z,100058.00
2018-12-21T12:15:31.810Z,100044.00
2018-12-21T12:17:59.989Z,100039.00
2018-12-21T12:20:28.176Z,100039.00
2018-12-21T12:22:56.541Z,100030.00
2018-12-21T12:25:24.715Z,100025.00
2018-12-21T12:27:52.897Z,100020.00
2018-12-21T12:30:21.343Z,100024.00
2018-12-21T12:32:49.520Z,100017.00
2018-12-21T12:35:17.729Z,100008.00
2018-12-21T12:37:45.953Z,100007.00
2018-12-21T12:40:14.106Z,100002.00
2018-12-21T12:42:42.271Z,99996.00
2018-12-21T12:45:10.475Z,99996.00
2018-12-21T12:47:38.632Z,99984.00
2018-12-21T12:50:07.109Z,99978.00
2018-12-21T12:52:35.300Z,99973.00
2018-12-21T12:55:03.885Z,99972.00
2018-12-21T12:57:32.082Z,99963.00
2018-12-21T13:00:00.285Z,99965.00
2018-12-21T13:02:28.468Z,99961.00
2018-12-21T13:04:56.619Z,99958.00
2018-12-21T13:07:24.837Z,99955.00
2018-12-21T13:09:53.157Z,99948.00
2018-12-21T13:12:22.090Z,99954.00
2018-12-21T13:14:50.296Z,99945.00
2018-12-21T13:17:18.513Z,99936.00
2018-12-21T13:19:46.684Z,99933.00
2018-12-21T13:22:14.867Z,99925.00
2018-12-21T13:24:43.058Z,99921.00
2018-12-21T13:27:11.231Z,99906.00
2018-12-21T13:29:39.406Z,99902.00
2018-12-21T13:32:07.568Z,99905.00
2018-12-21T13:34:35.754Z,99905.00
2018-12-21T13:37:03.912Z,99902.00
2018-12-21T13:39:32.150Z,99898.00
2018-12-21T13:42:00.309Z,99891.00
2018-12-21T13:44:28.469Z,99880.00
2018-12-21T13:46:56.665Z,99885.00
2018-12-21T13:49:25.424Z,99879.00
2018-12-21T13:51:53.624Z,99878.00
2018-12-21T13:54:21.829Z,99866.00
2018-12-21T13:56:50.004Z,99859.00
2018-12-21T13:59:18.214Z,99849.00
2018-12-21T14:01:46.428Z,99856.00
2018-12-21T14:04:14.595Z,99861.00
2018-12-21T14:06:42.794Z,99862.00
2018-12-21T14:09:10.977Z,99862.00
2018-12-21T14:11:39.199Z,99860.00
2018-12-21T14:14:07.365Z,99850.00
2018-12-21T14:16:35.528Z,99859.00
2018-12-21T14:19:03.832Z,99849.00
2018-12-21T14:21:32.017Z,99841.00
2018-12-21T14:24:00.209Z,99836.00
2018-12-21T14:26:28.420Z,99827.00
2018-12-21T14:28:56.692Z,99819.00
2018-12-21T14:31:24.901Z,99818.00
2018-12-21T14:33:53.108Z,99804.00
2018-12-21T14:36:21.276Z,99801.00
2018-12-21T14:38:49.446Z,99793.00
2018-12-21T14:41:17.633Z,99788.00
2018-12-21T14:43:45.808Z,99792.00
2018-12-21T14:46:13.972Z,99785.00
2018-12-21T14:48:42.184Z,99781.00
2018-12-21T14:51:10.348Z,99784.00
2018-12-21T14:53:38.509Z,99771.00
2018-12-21T14:56:06.709Z,99779.00
2018-12-21T14:58:34.871Z,99750.00
2018-12-21T15:01:03.043Z,99751.00
2018-12-21T15:03:31.256Z,99766.00
2018-12-21T15:05:59.486Z,99759.00
2018-12-21T15:08:27.648Z,99756.00
2018-12-21T15:10:55.877Z,99759.00
2018-12-21T15:13:24.084Z,99744.00
2018-12-21T15:15:52.251Z,99741.00
2018-12-21T15:18:20.447Z,99733.00
2018-12-21T15:20:48.621Z,99740.00
2018-12-21T15:23:16.765Z,99727.00
2018-12-21T15:25:46.176Z,99711.00
2018-12-21T15:28:14.714Z,99706.00
2018-12-21T15:30:42.876Z,99693.00
2018-12-21T15:33:11.081Z,99689.00
2018-12-21T15:35:39.280Z,99681.00
2018-12-21T15:38:07.444Z,99671.00
2018-12-21T15:40:35.640Z,99664.00
2018-12-21T15:43:03.807Z,99656.00
2018-12-21T15:45:32.657Z,99647.00
2018-12-21T15:48:00.864Z,99646.00
2018-12-21T15:50:29.034Z,99646.00
2018-12-21T15:52:57.202Z,99647.00
2018-12-21T15:55:25.411Z,99640.00
2018-12-21T15:57:53.618Z,99643.00
2018-12-21T16:00:21.982Z,99635.00
2018-12-21T16:02:50.212Z,99628.00
2018-12-21T16:05:18.417Z,99630.00
2018-12-21T16:07:46.632Z,99624.00
2018-12-21T16:10:14.862Z,99616.00
2018-12-21T16:12:43.120Z,99610.00
2018-12-21T16:15:11.287Z,99606.00
2018-12-21T16:17:39.524Z,99597.00
2018-12-21T16:20:11.947Z,99587.00
2018-12-21T16:22:42.510Z,99579.00
2018-12-21T16:25:10.701Z,99577.00
2018-12-21T16:27:39.975Z,99571.00
2018-12-21T16:30:10.176Z,99563.00
2018-12-21T16:32:38.324Z,99551.00
2018-12-21T16:35:06.522Z,99546.00
2018-12-21T16:37:34.787Z,99533.00
2018-12-21T16:40:03.140Z,99531.00
2018-12-21T16:42:31.334Z,99527.00
2018-12-21T16:44:59.538Z,99516.00
2018-12-21T16:47:27.788Z,99515.00
2018-12-21T16:49:56.901Z,99515.00
2018-12-21T16:52:25.083Z,99514.00
2018-12-21T16:54:53.253Z,99508.00
2018-12-21T16:57:21.450Z,99495.00
2018-12-21T16:59:49.639Z,99496.00
2018-12-21T17:02:17.799Z,99489.00
2018-12-21T17:04:45.964Z,99489.00
2018-12-21T17:07:14.353Z,99473.00
2018-12-21T17:09:42.560Z,99475.00
2018-12-21T17:12:10.848Z,99464.00
2018-12-21T17:14:39.283Z,99453.00
2018-12-21T17:17:07.451Z,99458.00
2018-12-21T17:19:35.626Z,99447.00
2018-12-21T17:22:03.879Z,99443.00
2018-12-21T17:24:32.059Z,99424.00
2018-12-21T17:27:00.233Z,99415.00
2018-12-21T17:29:28.896Z,99435.00
2018-12-21T17:31:57.280Z,99421.00
2018-12-21T17:34:25.511Z,99424.00
2018-12-21T17:36:53.713Z,99428.00
2018-12-21T17:39:21.866Z,99425.00
2018-12-21T17:41:50.038Z,99423.00
2018-12-21T17:44:18.232Z,99414.00
2018-12-21T17:46:46.417Z,99423.00
2018-12-21T17:49:14.593Z,99416.00
2018-12-21T17:51:42.850Z,99411.00
2018-12-21T17:54:11.019Z,99410.00
2018-12-21T17:56:39.166Z,99400.00
2018-12-21T17:59:07.419Z,99403.00
2018-12-21T18:01:35.773Z,99414.00
2018-12-21T18:04:04.872Z,99401.00
2018-12-21T18:06:33.081Z,99405.00
2018-12-21T18:09:01.284Z,99396.00
2018-12-21T18:11:29.574Z,99392.00
2018-12-21T18:13:57.788Z,99390.00
2018-12-21T18:16:25.961Z,99388.00
2018-12-21T18:18:54.133Z,99381.00
2018-12-21T18:21:23.676Z,99377.00
2018-12-21T18:23:51.848Z,99370.00
2018-12-21T18:26:20.032Z,99366.00
2018-12-21T18:28:48.232Z,99363.00
2018-12-21T18:31:16.485Z,99360.00
2018-12-21T18:33:44.746Z,99367.00
2018-12-21T18:36:12.949Z,99360.00
2018-12-21T18:38:41.141Z,99358.00
2018-12-21T18:41:09.369Z,99345.00
2018-12-21T18:43:37.562Z,99338.00
2018-12-21T18:46:05.889Z,99334.00
2018-12-21T18:48:34.114Z,99326.00
2018-12-21T18:51:02.325Z,99325.00
2018-12-21T18:53:30.539Z,99317.00
2018-12-21T18:55:58.780Z,99323.00
2018-12-21T18:58:26.985Z,99312.00
2018-12-21T19:00:55.196Z,99310.00
2018-12-21T19:03:23.585Z,99310.00
2018-12-21T19:05:51.809Z,99310.00
2018-12-21T19:08:19.983Z,99299.00
2018-12-21T19:10:48.148Z,99297.00
2018-12-21T19:13:16.348Z,99292.00
2018-12-21T19:15:44.600Z,99279.00
2018-12-21T19:18:12.882Z,99280.00
2018-12-21T19:20:41.088Z,99271.00
2018-12-21T19:23:09.315Z,99272.00
2018-12-21T19:25:37.630Z,99265.00
2018-12-21T19:28:05.879Z,99257.00
2018-12-21T19:30:34.092Z,99262.00
2018-12-21T19:33:02.253Z,99258.00
2018-12-21T19:35:30.794Z,99254.00
2018-12-21T19:37:58.978Z,99240.00
2018-12-21T19:40:27.149Z,99250.00
2018-12-21T19:42:55.368Z,99251.00
2018-12-21T19:45:23.589Z,99249.00
2018-12-21T19:47:51.761Z,99241.00
2018-12-21T19:50:20.017Z,99233.00
2018-12-21T19:52:48.246Z,99229.00
2018-12-21T19:55:23.127Z,99217.00
2018-12-21T19:57:51.301Z,99219.00
2018-12-21T20:00:19.469Z,99216.00
2018-12-21T20:02:47.737Z,99203.00
2018-12-21T20:05:15.901Z,99195.00
2018-12-21T20:07:44.098Z,99203.00
2018-12-21T20:10:12.486Z,99194.00
2018-12-21T20:12:40.647Z,99196.00
2018-12-21T20:15:11.217Z,99178.00
2018-12-21T20:17:41.092Z,99193.00
2018-12-21T20:20:12.125Z,99190.00
2018-12-21T20:22:40.298Z,99188.00
2018-12-21T20:25:09.304Z,99191.00
2018-12-21T20:27:37.598Z,99184.00
2018-12-21T20:30:10.612Z,99184.00
2018-12-21T20:32:38.805Z,99176.00
2018-12-21T20:35:09.369Z,99182.00
2018-12-21T20:37:37.666Z,99168.00
2018-12-21T20:40:10.864Z,99165.00
2018-12-21T20:42:39.826Z,99172.00
2018-12-21T20:45:11.216Z,99167.00
2018-12-21T20:47:39.486Z,99167.00
2018-12-21T20:50:12.981Z,99162.00
2018-12-21T20:52:41.230Z,99157.00
2018-12-21T20:55:10.405Z,99147.00
2018-12-21T20:57:42.914Z,99159.00
2018-12-21T21:00:15.891Z,99144.00
2018-12-21T21:02:44.802Z,99149.00
2018-12-21T21:05:12.989Z,99148.00
2018-12-21T21:07:41.153Z,99142.00
2018-12-21T21:10:11.739Z,99148.00
2018-12-21T21:12:40.279Z,99147.00
2018-12-21T21:15:11.911Z,99145.00
2018-12-21T21:17:40.093Z,99139.00
2018-12-21T21:20:13.277Z,99147.00
2018-12-21T21:22:42.606Z,99144.00
2018-12-21T21:25:10.781Z,99139.00
2018-12-21T21:27:39.012Z,99137.00
2018-12-21T21:30:15.529Z,99132.00
2018-12-21T21:32:43.776Z,99138.00
2018-12-21T21:35:11.998Z,99136.00
2018-12-21T21:37:40.231Z,99145.00
2018-12-21T21:40:17.800Z,99139.00
2018-12-21T21:42:47.501Z,99134.00
2018-12-21T21:45:15.723Z,99135.00
2018-12-21T21:47:44.004Z,99137.00
2018-12-21T21:50:12.303Z,99129.00
2018-12-21T21:52:40.550Z,99141.00
2018-12-21T21:55:08.872Z,99133.00
2018-12-21T21:57:39.559Z,99123.00
2018-12-21T22:00:11.325Z,99121.00
2018-12-21T22:02:39.549Z,99130.00
2018-12-21T22:05:07.757Z,99124.00
2018-12-21T22:07:36.046Z,99121.00
2018-12-21T22:10:07.956Z,99126.00
2018-12-21T22:12:36.174Z,99116.00
2018-12-21T22:15:06.060Z,99125.00
2018-12-21T22:17:34.264Z,99129.00
2018-12-21T22:20:02.510Z,99127.00
2018-12-21T22:22:30.686Z,99123.00
2018-12-21T22:24:58.850Z,99112.00
2018-12-21T22:27:27.067Z,99099.00
2018-12-21T22:29:55.232Z,99094.00
2018-12-21T22:32:23.416Z,99089.00
2018-12-21T22:34:51.621Z,99091.00
2018-12-21T22:37:19.790Z,99102.00
2018-12-21T22:39:47.957Z,99098.00
2018-12-21T22:42:16.148Z,99104.00
2018-12-21T22:44:44.345Z,99099.00
2018-12-21T22:47:12.550Z,99114.00
2018-12-21T22:49:40.784Z,99105.00
2018-12-21T22:52:08.949Z,99102.00
2018-12-21T22:54:37.145Z,99094.00
2018-12-21T22:57:05.348Z,99100.00
2018-12-21T22:59:33.522Z,99108.00
2018-12-21T23:02:01.733Z,99118.00
2018-12-21T23:04:29.920Z,99115.00
2018-12-21T23:06:58.117Z,99122.00
2018-12-21T23:09:26.264Z,99118.00
2018-12-21T23:11:54.456Z,99115.00
2018-12-21T23:14:22.625Z,99111.00
2018-12-21T23:16:50.780Z,99115.00
2018-12-21T23:19:19.009Z,99120.00
2018-12-21T23:21:47.230Z,99127.00
2018-12-21T23:24:17.490Z,99129.00
2018-12-21T23:26:45.635Z,99121.00
2018-12-21T23:29:13.800Z,99128.00
2018-12-21T23:31:41.960Z,99125.00
2018-12-21T23:34:10.167Z,99120.00
2018-12-21T23:36:38.319Z,99119.00
2018-12-21T23:39:07.100Z,99111.00
2018-12-21T23:41:35.297Z,99110.00
2018-12-21T23:44:03.517Z,99110.00
2018-12-21T23:46:31.686Z,99112.00
2018-12-21T23:48:59.888Z,99110.00
2018-12-21T23:51:28.057Z,99099.00
2018-12-21T23:53:56.257Z,99100.00
2018-12-21T23:56:24.452Z,99096.00
2018-12-21T23:58:52.609Z,99085.00
